Schiedam, Netherlands
Current Conditions -  °F | °C
As of 11:55 AM on Sunday 23 Nov 2014 (Local Time) from EHRD Reporting Station
Clear Clear  
Wind Chill: 55°   Ceiling: Unl
Heat Index: 55°   Visibility: 6mi
Dew Point: 50°   Wind: 9mph
Humidity: 82%   Direction: 170°S
Pressure: 29.97"   Gusts: NA
Location:  51.92°N, 4.39°E
Report Text: EHRD 231055Z AUTO 17008KT 140V200 9999 NSC 13/10 Q1015 NOSIG
Loading
Personal Weather Stations






























Interactive Weather Map New forecast layout! Learn more

10-Day Weather Forecast

Advertisements
Track Severe Weather on mobile